Terminal Aerodrome Forecast
Issued by NWS

Home | Current Version | Previous Version | Graphics & Text | Print | Product List | Glossary On
Versions: 1 2 3 4 5 6 7 8 9 10 11 12 13 14
000
FTUS45 KGGW 222320
TAFSDY
TAF
KSDY 222320Z 2300/2324 09010G20KT P6SM VCSH OVC050
     FM230500 09011G20KT 6SM -RA OVC035
     FM230700 09011G20KT 6SM -RA OVC030
     FM231000 07009KT P6SM VCSH OVC020
     FM231200 08008KT 5SM -RA OVC015
     FM231800 10013KT 3SM RA OVC007=

USA.gov is the U.S. government's official web portal to all federal, state and local government web resources and services.